sensor_id;sensor_type;location;lat;lon;timestamp;P1;durP1;ratioP1;P2;durP2;ratioP2
28431;SDS011;15664;51.302;7.744;2023-02-04T00:00:51;14.10;;;2.73;;
28431;SDS011;15664;51.302;7.744;2023-02-04T00:03:16;5.93;;;1.87;;
28431;SDS011;15664;51.302;7.744;2023-02-04T00:05:42;15.20;;;2.22;;
28431;SDS011;15664;51.302;7.744;2023-02-04T00:08:08;22.60;;;3.00;;
28431;SDS011;15664;51.302;7.744;2023-02-04T00:10:34;18.13;;;3.83;;
28431;SDS011;15664;51.302;7.744;2023-02-04T00:13:00;12.77;;;2.88;;
28431;SDS011;15664;51.302;7.744;2023-02-04T00:15:26;10.93;;;1.70;;
28431;SDS011;15664;51.302;7.744;2023-02-04T00:17:51;10.60;;;2.30;;
28431;SDS011;15664;51.302;7.744;2023-02-04T00:20:17;14.83;;;2.50;;
28431;SDS011;15664;51.302;7.744;2023-02-04T00:22:43;12.00;;;2.17;;
28431;SDS011;15664;51.302;7.744;2023-02-04T00:25:09;28.33;;;4.57;;
28431;SDS011;15664;51.302;7.744;2023-02-04T00:27:35;16.83;;;4.32;;
28431;SDS011;15664;51.302;7.744;2023-02-04T00:30:01;22.93;;;3.83;;
28431;SDS011;15664;51.302;7.744;2023-02-04T00:32:27;15.10;;;2.60;;
28431;SDS011;15664;51.302;7.744;2023-02-04T00:34:52;28.00;;;2.40;;
28431;SDS011;15664;51.302;7.744;2023-02-04T00:37:18;12.93;;;2.25;;
28431;SDS011;15664;51.302;7.744;2023-02-04T00:39:44;6.77;;;1.53;;
28431;SDS011;15664;51.302;7.744;2023-02-04T00:42:09;9.00;;;1.73;;
28431;SDS011;15664;51.302;7.744;2023-02-04T00:44:35;19.20;;;2.70;;
28431;SDS011;15664;51.302;7.744;2023-02-04T00:47:00;10.63;;;2.17;;
28431;SDS011;15664;51.302;7.744;2023-02-04T00:49:28;14.13;;;2.67;;
28431;SDS011;15664;51.302;7.744;2023-02-04T00:51:54;8.17;;;2.53;;
28431;SDS011;15664;51.302;7.744;2023-02-04T00:54:20;12.70;;;2.28;;
28431;SDS011;15664;51.302;7.744;2023-02-04T00:56:45;19.70;;;3.27;;
28431;SDS011;15664;51.302;7.744;2023-02-04T00:59:11;22.20;;;3.20;;
28431;SDS011;15664;51.302;7.744;2023-02-04T01:01:37;11.77;;;2.72;;
28431;SDS011;15664;51.302;7.744;2023-02-04T01:04:03;15.07;;;2.53;;
28431;SDS011;15664;51.302;7.744;2023-02-04T01:06:28;9.23;;;2.13;;
28431;SDS011;15664;51.302;7.744;2023-02-04T01:08:54;5.63;;;2.30;;
28431;SDS011;15664;51.302;7.744;2023-02-04T01:11:21;16.10;;;2.70;;
28431;SDS011;15664;51.302;7.744;2023-02-04T01:13:47;15.40;;;2.63;;
28431;SDS011;15664;51.302;7.744;2023-02-04T01:16:13;16.03;;;2.23;;
28431;SDS011;15664;51.302;7.744;2023-02-04T01:18:39;7.70;;;2.40;;
28431;SDS011;15664;51.302;7.744;2023-02-04T01:21:04;17.17;;;2.53;;
28431;SDS011;15664;51.302;7.744;2023-02-04T01:23:30;11.70;;;2.45;;
28431;SDS011;15664;51.302;7.744;2023-02-04T01:25:56;12.57;;;2.58;;
28431;SDS011;15664;51.302;7.744;2023-02-04T01:28:22;20.13;;;3.00;;
28431;SDS011;15664;51.302;7.744;2023-02-04T01:30:48;16.63;;;2.70;;
28431;SDS011;15664;51.302;7.744;2023-02-04T01:33:14;17.85;;;3.72;;
28431;SDS011;15664;51.302;7.744;2023-02-04T01:35:40;20.70;;;2.63;;
28431;SDS011;15664;51.302;7.744;2023-02-04T01:38:06;24.58;;;3.22;;
28431;SDS011;15664;51.302;7.744;2023-02-04T01:40:31;25.00;;;4.03;;
28431;SDS011;15664;51.302;7.744;2023-02-04T01:42:57;15.60;;;3.30;;
28431;SDS011;15664;51.302;7.744;2023-02-04T01:45:23;16.45;;;2.72;;
28431;SDS011;15664;51.302;7.744;2023-02-04T01:47:49;11.38;;;2.85;;
28431;SDS011;15664;51.302;7.744;2023-02-04T01:50:15;9.90;;;2.57;;
28431;SDS011;15664;51.302;7.744;2023-02-04T01:52:42;10.73;;;2.88;;
28431;SDS011;15664;51.302;7.744;2023-02-04T01:55:19;16.07;;;3.07;;
28431;SDS011;15664;51.302;7.744;2023-02-04T01:57:48;19.77;;;3.15;;
28431;SDS011;15664;51.302;7.744;2023-02-04T02:00:24;24.98;;;4.40;;
28431;SDS011;15664;51.302;7.744;2023-02-04T02:02:52;13.27;;;3.42;;
28431;SDS011;15664;51.302;7.744;2023-02-04T02:05:20;18.33;;;3.95;;
28431;SDS011;15664;51.302;7.744;2023-02-04T02:07:50;16.43;;;3.50;;
28431;SDS011;15664;51.302;7.744;2023-02-04T02:10:17;23.00;;;4.20;;
28431;SDS011;15664;51.302;7.744;2023-02-04T02:12:43;27.48;;;4.40;;
28431;SDS011;15664;51.302;7.744;2023-02-04T02:15:10;19.00;;;3.55;;
28431;SDS011;15664;51.302;7.744;2023-02-04T02:17:37;16.05;;;4.15;;
28431;SDS011;15664;51.302;7.744;2023-02-04T02:20:08;18.23;;;3.90;;
28431;SDS011;15664;51.302;7.744;2023-02-04T02:22:37;22.30;;;4.93;;
28431;SDS011;15664;51.302;7.744;2023-02-04T02:25:16;23.00;;;5.18;;
28431;SDS011;15664;51.302;7.744;2023-02-04T02:27:42;17.27;;;4.27;;
28431;SDS011;15664;51.302;7.744;2023-02-04T02:30:09;17.35;;;2.75;;
28431;SDS011;15664;51.302;7.744;2023-02-04T02:32:36;18.25;;;4.40;;
28431;SDS011;15664;51.302;7.744;2023-02-04T02:35:03;21.67;;;3.92;;
28431;SDS011;15664;51.302;7.744;2023-02-04T02:37:29;18.53;;;4.50;;
28431;SDS011;15664;51.302;7.744;2023-02-04T02:39:55;8.13;;;2.55;;
28431;SDS011;15664;51.302;7.744;2023-02-04T02:42:21;23.80;;;4.03;;
28431;SDS011;15664;51.302;7.744;2023-02-04T02:44:47;21.20;;;4.57;;
28431;SDS011;15664;51.302;7.744;2023-02-04T02:47:15;24.95;;;5.68;;
28431;SDS011;15664;51.302;7.744;2023-02-04T02:49:44;17.85;;;4.50;;
28431;SDS011;15664;51.302;7.744;2023-02-04T02:52:13;22.50;;;6.03;;
28431;SDS011;15664;51.302;7.744;2023-02-04T02:54:39;25.48;;;5.30;;
28431;SDS011;15664;51.302;7.744;2023-02-04T02:57:13;27.27;;;5.27;;
28431;SDS011;15664;51.302;7.744;2023-02-04T02:59:41;29.90;;;5.20;;
28431;SDS011;15664;51.302;7.744;2023-02-04T03:02:07;19.48;;;5.28;;
28431;SDS011;15664;51.302;7.744;2023-02-04T03:04:36;20.60;;;4.88;;
28431;SDS011;15664;51.302;7.744;2023-02-04T03:07:07;17.30;;;4.05;;
28431;SDS011;15664;51.302;7.744;2023-02-04T03:09:34;14.83;;;4.00;;
28431;SDS011;15664;51.302;7.744;2023-02-04T03:12:01;18.95;;;5.18;;
28431;SDS011;15664;51.302;7.744;2023-02-04T03:14:27;18.73;;;3.95;;
28431;SDS011;15664;51.302;7.744;2023-02-04T03:16:53;16.35;;;4.75;;
28431;SDS011;15664;51.302;7.744;2023-02-04T03:19:20;14.18;;;3.92;;
28431;SDS011;15664;51.302;7.744;2023-02-04T03:21:48;24.30;;;5.27;;
28431;SDS011;15664;51.302;7.744;2023-02-04T03:24:13;20.58;;;3.97;;
28431;SDS011;15664;51.302;7.744;2023-02-04T03:26:39;26.57;;;4.93;;
28431;SDS011;15664;51.302;7.744;2023-02-04T03:29:05;15.07;;;3.07;;
28431;SDS011;15664;51.302;7.744;2023-02-04T03:31:33;28.20;;;4.80;;
28431;SDS011;15664;51.302;7.744;2023-02-04T03:33:59;28.35;;;5.43;;
28431;SDS011;15664;51.302;7.744;2023-02-04T03:36:24;16.17;;;4.10;;
28431;SDS011;15664;51.302;7.744;2023-02-04T03:38:50;18.47;;;3.70;;
28431;SDS011;15664;51.302;7.744;2023-02-04T03:41:16;22.77;;;4.03;;
28431;SDS011;15664;51.302;7.744;2023-02-04T03:43:42;13.25;;;3.55;;
28431;SDS011;15664;51.302;7.744;2023-02-04T03:46:08;12.83;;;2.37;;
28431;SDS011;15664;51.302;7.744;2023-02-04T03:48:33;16.50;;;3.20;;
28431;SDS011;15664;51.302;7.744;2023-02-04T03:50:59;19.67;;;3.22;;
28431;SDS011;15664;51.302;7.744;2023-02-04T03:53:24;12.13;;;3.83;;
28431;SDS011;15664;51.302;7.744;2023-02-04T03:55:49;11.80;;;2.73;;
28431;SDS011;15664;51.302;7.744;2023-02-04T03:58:15;19.43;;;3.13;;
28431;SDS011;15664;51.302;7.744;2023-02-04T04:00:40;13.90;;;2.43;;
28431;SDS011;15664;51.302;7.744;2023-02-04T04:03:05;9.90;;;3.27;;
28431;SDS011;15664;51.302;7.744;2023-02-04T04:05:31;19.45;;;3.88;;
28431;SDS011;15664;51.302;7.744;2023-02-04T04:07:57;23.73;;;4.93;;
28431;SDS011;15664;51.302;7.744;2023-02-04T04:10:23;27.10;;;4.85;;
28431;SDS011;15664;51.302;7.744;2023-02-04T04:12:49;28.35;;;5.00;;
28431;SDS011;15664;51.302;7.744;2023-02-04T04:15:15;21.60;;;4.80;;
28431;SDS011;15664;51.302;7.744;2023-02-04T04:17:41;20.98;;;4.32;;
28431;SDS011;15664;51.302;7.744;2023-02-04T04:20:06;24.23;;;3.90;;
28431;SDS011;15664;51.302;7.744;2023-02-04T04:22:32;16.77;;;4.28;;
28431;SDS011;15664;51.302;7.744;2023-02-04T04:24:58;31.13;;;5.00;;
28431;SDS011;15664;51.302;7.744;2023-02-04T04:27:23;16.03;;;3.17;;
28431;SDS011;15664;51.302;7.744;2023-02-04T04:29:50;17.73;;;3.92;;
28431;SDS011;15664;51.302;7.744;2023-02-04T04:32:17;7.78;;;2.92;;
28431;SDS011;15664;51.302;7.744;2023-02-04T04:34:42;26.43;;;4.80;;
28431;SDS011;15664;51.302;7.744;2023-02-04T04:37:08;18.77;;;3.70;;
28431;SDS011;15664;51.302;7.744;2023-02-04T04:39:33;18.70;;;4.07;;
28431;SDS011;15664;51.302;7.744;2023-02-04T04:41:59;8.98;;;2.72;;
28431;SDS011;15664;51.302;7.744;2023-02-04T04:44:24;16.10;;;3.85;;
28431;SDS011;15664;51.302;7.744;2023-02-04T04:46:50;19.95;;;3.58;;
28431;SDS011;15664;51.302;7.744;2023-02-04T04:49:15;11.13;;;2.80;;
28431;SDS011;15664;51.302;7.744;2023-02-04T04:51:41;28.73;;;3.87;;
28431;SDS011;15664;51.302;7.744;2023-02-04T04:54:07;17.88;;;3.75;;
28431;SDS011;15664;51.302;7.744;2023-02-04T04:56:32;18.90;;;5.07;;
28431;SDS011;15664;51.302;7.744;2023-02-04T04:58:57;20.57;;;5.40;;
28431;SDS011;15664;51.302;7.744;2023-02-04T05:01:23;14.05;;;3.40;;
28431;SDS011;15664;51.302;7.744;2023-02-04T05:03:49;31.20;;;5.45;;
28431;SDS011;15664;51.302;7.744;2023-02-04T05:06:14;21.47;;;4.63;;
28431;SDS011;15664;51.302;7.744;2023-02-04T05:08:40;20.00;;;4.53;;
28431;SDS011;15664;51.302;7.744;2023-02-04T05:11:05;25.52;;;4.40;;
28431;SDS011;15664;51.302;7.744;2023-02-04T05:13:31;21.23;;;4.53;;
28431;SDS011;15664;51.302;7.744;2023-02-04T05:15:57;14.77;;;4.32;;
28431;SDS011;15664;51.302;7.744;2023-02-04T05:18:22;34.77;;;5.10;;
28431;SDS011;15664;51.302;7.744;2023-02-04T05:20:47;21.83;;;5.90;;
28431;SDS011;15664;51.302;7.744;2023-02-04T05:23:13;12.00;;;3.20;;
28431;SDS011;15664;51.302;7.744;2023-02-04T05:25:39;23.10;;;5.45;;
28431;SDS011;15664;51.302;7.744;2023-02-04T05:28:05;18.20;;;4.67;;
28431;SDS011;15664;51.302;7.744;2023-02-04T05:30:30;23.85;;;4.88;;
28431;SDS011;15664;51.302;7.744;2023-02-04T05:32:55;17.95;;;4.65;;
28431;SDS011;15664;51.302;7.744;2023-02-04T05:35:21;10.60;;;3.30;;
28431;SDS011;15664;51.302;7.744;2023-02-04T05:37:47;13.40;;;3.43;;
28431;SDS011;15664;51.302;7.744;2023-02-04T05:40:12;34.83;;;5.78;;
28431;SDS011;15664;51.302;7.744;2023-02-04T05:42:38;28.73;;;5.55;;
28431;SDS011;15664;51.302;7.744;2023-02-04T05:45:04;19.57;;;4.57;;
28431;SDS011;15664;51.302;7.744;2023-02-04T05:47:31;12.40;;;3.42;;
28431;SDS011;15664;51.302;7.744;2023-02-04T05:49:56;28.10;;;5.77;;
28431;SDS011;15664;51.302;7.744;2023-02-04T05:52:22;28.33;;;5.57;;
28431;SDS011;15664;51.302;7.744;2023-02-04T05:54:47;21.90;;;4.97;;
28431;SDS011;15664;51.302;7.744;2023-02-04T05:57:13;24.48;;;5.20;;
28431;SDS011;15664;51.302;7.744;2023-02-04T05:59:38;26.95;;;5.13;;
28431;SDS011;15664;51.302;7.744;2023-02-04T06:02:03;27.07;;;5.10;;
28431;SDS011;15664;51.302;7.744;2023-02-04T06:04:29;21.17;;;5.23;;
28431;SDS011;15664;51.302;7.744;2023-02-04T06:06:54;26.70;;;5.50;;
28431;SDS011;15664;51.302;7.744;2023-02-04T06:09:20;22.25;;;5.68;;
28431;SDS011;15664;51.302;7.744;2023-02-04T06:11:45;26.23;;;6.85;;
28431;SDS011;15664;51.302;7.744;2023-02-04T06:14:11;29.40;;;6.33;;
28431;SDS011;15664;51.302;7.744;2023-02-04T06:16:37;31.95;;;5.90;;
28431;SDS011;15664;51.302;7.744;2023-02-04T06:19:02;23.80;;;6.05;;
28431;SDS011;15664;51.302;7.744;2023-02-04T06:21:28;26.23;;;6.13;;
28431;SDS011;15664;51.302;7.744;2023-02-04T06:23:53;23.63;;;5.90;;
28431;SDS011;15664;51.302;7.744;2023-02-04T06:26:19;22.58;;;5.60;;
28431;SDS011;15664;51.302;7.744;2023-02-04T06:28:44;39.22;;;6.60;;
28431;SDS011;15664;51.302;7.744;2023-02-04T06:31:10;33.37;;;6.50;;
28431;SDS011;15664;51.302;7.744;2023-02-04T06:33:36;26.80;;;6.38;;
28431;SDS011;15664;51.302;7.744;2023-02-04T06:36:02;32.47;;;6.33;;
28431;SDS011;15664;51.302;7.744;2023-02-04T06:38:28;27.48;;;6.40;;
28431;SDS011;15664;51.302;7.744;2023-02-04T06:40:53;14.57;;;3.87;;
28431;SDS011;15664;51.302;7.744;2023-02-04T06:43:19;34.97;;;6.70;;
28431;SDS011;15664;51.302;7.744;2023-02-04T06:45:46;34.23;;;6.20;;
28431;SDS011;15664;51.302;7.744;2023-02-04T06:48:12;23.15;;;4.75;;
28431;SDS011;15664;51.302;7.744;2023-02-04T06:50:37;36.00;;;6.43;;
28431;SDS011;15664;51.302;7.744;2023-02-04T06:53:03;25.63;;;5.70;;
28431;SDS011;15664;51.302;7.744;2023-02-04T06:55:28;38.90;;;7.07;;
28431;SDS011;15664;51.302;7.744;2023-02-04T06:57:54;24.75;;;5.00;;
28431;SDS011;15664;51.302;7.744;2023-02-04T07:00:19;24.50;;;5.23;;
28431;SDS011;15664;51.302;7.744;2023-02-04T07:02:45;29.17;;;6.45;;
28431;SDS011;15664;51.302;7.744;2023-02-04T07:05:11;28.47;;;6.20;;
28431;SDS011;15664;51.302;7.744;2023-02-04T07:07:36;32.10;;;6.03;;
28431;SDS011;15664;51.302;7.744;2023-02-04T07:10:02;36.75;;;6.32;;
28431;SDS011;15664;51.302;7.744;2023-02-04T07:12:28;36.13;;;7.13;;
28431;SDS011;15664;51.302;7.744;2023-02-04T07:14:54;25.07;;;5.60;;
28431;SDS011;15664;51.302;7.744;2023-02-04T07:17:19;31.07;;;6.30;;
28431;SDS011;15664;51.302;7.744;2023-02-04T07:19:44;26.33;;;6.00;;
28431;SDS011;15664;51.302;7.744;2023-02-04T07:22:09;25.47;;;6.87;;
28431;SDS011;15664;51.302;7.744;2023-02-04T07:24:35;34.43;;;7.23;;
28431;SDS011;15664;51.302;7.744;2023-02-04T07:27:00;26.73;;;6.53;;
28431;SDS011;15664;51.302;7.744;2023-02-04T07:29:26;32.88;;;7.00;;
28431;SDS011;15664;51.302;7.744;2023-02-04T07:31:52;27.97;;;5.67;;
28431;SDS011;15664;51.302;7.744;2023-02-04T07:34:18;26.25;;;5.78;;
28431;SDS011;15664;51.302;7.744;2023-02-04T07:36:45;30.10;;;5.35;;
28431;SDS011;15664;51.302;7.744;2023-02-04T07:39:10;26.10;;;5.83;;
28431;SDS011;15664;51.302;7.744;2023-02-04T07:41:36;30.83;;;5.53;;
28431;SDS011;15664;51.302;7.744;2023-02-04T07:44:02;23.00;;;5.30;;
28431;SDS011;15664;51.302;7.744;2023-02-04T07:46:28;24.95;;;5.43;;
28431;SDS011;15664;51.302;7.744;2023-02-04T07:48:53;27.30;;;6.33;;
28431;SDS011;15664;51.302;7.744;2023-02-04T07:51:19;25.30;;;5.27;;
28431;SDS011;15664;51.302;7.744;2023-02-04T07:53:45;30.33;;;6.38;;
28431;SDS011;15664;51.302;7.744;2023-02-04T07:56:11;26.63;;;6.40;;
28431;SDS011;15664;51.302;7.744;2023-02-04T07:58:36;24.13;;;5.53;;
28431;SDS011;15664;51.302;7.744;2023-02-04T08:01:01;24.73;;;5.68;;
28431;SDS011;15664;51.302;7.744;2023-02-04T08:03:27;26.25;;;5.38;;
28431;SDS011;15664;51.302;7.744;2023-02-04T08:05:53;27.77;;;5.72;;
28431;SDS011;15664;51.302;7.744;2023-02-04T08:08:19;24.03;;;5.67;;
28431;SDS011;15664;51.302;7.744;2023-02-04T08:10:45;32.83;;;6.00;;
28431;SDS011;15664;51.302;7.744;2023-02-04T08:13:10;23.02;;;5.15;;
28431;SDS011;15664;51.302;7.744;2023-02-04T08:15:36;27.13;;;5.17;;
28431;SDS011;15664;51.302;7.744;2023-02-04T08:18:01;23.67;;;5.50;;
28431;SDS011;15664;51.302;7.744;2023-02-04T08:20:26;20.33;;;5.43;;
28431;SDS011;15664;51.302;7.744;2023-02-04T08:22:52;24.60;;;5.25;;
28431;SDS011;15664;51.302;7.744;2023-02-04T08:25:18;19.90;;;4.60;;
28431;SDS011;15664;51.302;7.744;2023-02-04T08:27:43;22.83;;;5.40;;
28431;SDS011;15664;51.302;7.744;2023-02-04T08:30:08;25.53;;;5.83;;
28431;SDS011;15664;51.302;7.744;2023-02-04T08:32:34;22.35;;;5.93;;
28431;SDS011;15664;51.302;7.744;2023-02-04T08:35:00;26.60;;;6.03;;
28431;SDS011;15664;51.302;7.744;2023-02-04T08:37:25;28.73;;;5.72;;
28431;SDS011;15664;51.302;7.744;2023-02-04T08:39:51;27.70;;;6.30;;
28431;SDS011;15664;51.302;7.744;2023-02-04T08:42:17;22.13;;;5.47;;
28431;SDS011;15664;51.302;7.744;2023-02-04T08:44:42;24.83;;;6.00;;
28431;SDS011;15664;51.302;7.744;2023-02-04T08:47:08;20.13;;;5.37;;
28431;SDS011;15664;51.302;7.744;2023-02-04T08:49:35;25.48;;;4.63;;
28431;SDS011;15664;51.302;7.744;2023-02-04T08:52:00;20.35;;;4.60;;
28431;SDS011;15664;51.302;7.744;2023-02-04T08:54:27;17.55;;;4.55;;
28431;SDS011;15664;51.302;7.744;2023-02-04T08:56:53;26.23;;;5.15;;
28431;SDS011;15664;51.302;7.744;2023-02-04T08:59:18;33.15;;;5.47;;
28431;SDS011;15664;51.302;7.744;2023-02-04T09:01:45;22.85;;;5.43;;
28431;SDS011;15664;51.302;7.744;2023-02-04T09:04:13;22.95;;;5.65;;
28431;SDS011;15664;51.302;7.744;2023-02-04T09:06:39;27.13;;;6.05;;
28431;SDS011;15664;51.302;7.744;2023-02-04T09:09:05;25.83;;;6.57;;
28431;SDS011;15664;51.302;7.744;2023-02-04T09:11:31;26.93;;;5.47;;
28431;SDS011;15664;51.302;7.744;2023-02-04T09:13:56;25.17;;;4.63;;
28431;SDS011;15664;51.302;7.744;2023-02-04T09:16:22;23.57;;;5.20;;
28431;SDS011;15664;51.302;7.744;2023-02-04T09:18:47;25.05;;;5.95;;
28431;SDS011;15664;51.302;7.744;2023-02-04T09:21:13;25.00;;;4.77;;
28431;SDS011;15664;51.302;7.744;2023-02-04T09:23:38;22.17;;;4.40;;
28431;SDS011;15664;51.302;7.744;2023-02-04T09:26:04;24.55;;;5.78;;
28431;SDS011;15664;51.302;7.744;2023-02-04T09:28:30;27.33;;;5.10;;
28431;SDS011;15664;51.302;7.744;2023-02-04T09:30:56;21.20;;;4.60;;
28431;SDS011;15664;51.302;7.744;2023-02-04T09:33:22;20.97;;;4.17;;
28431;SDS011;15664;51.302;7.744;2023-02-04T09:35:47;17.33;;;3.78;;
28431;SDS011;15664;51.302;7.744;2023-02-04T09:38:13;28.10;;;5.07;;
28431;SDS011;15664;51.302;7.744;2023-02-04T09:40:46;23.37;;;4.40;;
28431;SDS011;15664;51.302;7.744;2023-02-04T09:43:17;17.92;;;3.65;;
28431;SDS011;15664;51.302;7.744;2023-02-04T09:45:46;21.83;;;4.97;;
28431;SDS011;15664;51.302;7.744;2023-02-04T09:48:13;24.90;;;4.05;;
28431;SDS011;15664;51.302;7.744;2023-02-04T09:50:39;14.80;;;3.53;;
28431;SDS011;15664;51.302;7.744;2023-02-04T09:53:05;23.85;;;4.97;;
28431;SDS011;15664;51.302;7.744;2023-02-04T09:55:39;23.38;;;4.30;;
28431;SDS011;15664;51.302;7.744;2023-02-04T09:58:11;16.90;;;3.60;;
28431;SDS011;15664;51.302;7.744;2023-02-04T10:00:40;19.67;;;3.97;;
28431;SDS011;15664;51.302;7.744;2023-02-04T10:03:09;16.17;;;4.13;;
28431;SDS011;15664;51.302;7.744;2023-02-04T10:05:38;18.17;;;4.68;;
28431;SDS011;15664;51.302;7.744;2023-02-04T10:08:04;16.37;;;4.00;;
28431;SDS011;15664;51.302;7.744;2023-02-04T10:10:30;17.80;;;3.65;;
28431;SDS011;15664;51.302;7.744;2023-02-04T10:12:58;21.00;;;4.30;;
28431;SDS011;15664;51.302;7.744;2023-02-04T10:15:26;17.33;;;3.70;;
28431;SDS011;15664;51.302;7.744;2023-02-04T10:17:53;19.73;;;4.00;;
28431;SDS011;15664;51.302;7.744;2023-02-04T10:20:23;20.65;;;4.13;;
28431;SDS011;15664;51.302;7.744;2023-02-04T10:22:50;15.48;;;3.45;;
28431;SDS011;15664;51.302;7.744;2023-02-04T10:25:18;19.13;;;3.70;;
28431;SDS011;15664;51.302;7.744;2023-02-04T10:27:49;20.08;;;3.78;;
28431;SDS011;15664;51.302;7.744;2023-02-04T10:30:57;18.67;;;4.23;;
28431;SDS011;15664;51.302;7.744;2023-02-04T10:33:38;17.58;;;3.55;;
28431;SDS011;15664;51.302;7.744;2023-02-04T10:35:59;19.13;;;4.30;;
28431;SDS011;15664;51.302;7.744;2023-02-04T10:38:25;21.83;;;4.00;;
28431;SDS011;15664;51.302;7.744;2023-02-04T10:41:03;21.85;;;4.43;;
28431;SDS011;15664;51.302;7.744;2023-02-04T10:43:30;20.00;;;4.20;;
28431;SDS011;15664;51.302;7.744;2023-02-04T10:45:57;13.82;;;3.55;;
28431;SDS011;15664;51.302;7.744;2023-02-04T10:48:24;22.20;;;3.15;;
28431;SDS011;15664;51.302;7.744;2023-02-04T10:50:50;19.40;;;4.00;;
28431;SDS011;15664;51.302;7.744;2023-02-04T10:53:20;14.07;;;3.60;;
28431;SDS011;15664;51.302;7.744;2023-02-04T10:56:19;19.30;;;3.88;;
28431;SDS011;15664;51.302;7.744;2023-02-04T10:58:45;19.52;;;3.30;;
28431;SDS011;15664;51.302;7.744;2023-02-04T11:01:11;17.00;;;4.63;;
28431;SDS011;15664;51.302;7.744;2023-02-04T11:03:39;16.27;;;3.80;;
28431;SDS011;15664;51.302;7.744;2023-02-04T11:06:12;23.48;;;3.90;;
28431;SDS011;15664;51.302;7.744;2023-02-04T11:08:42;17.70;;;4.07;;
28431;SDS011;15664;51.302;7.744;2023-02-04T11:11:17;20.47;;;3.77;;
28431;SDS011;15664;51.302;7.744;2023-02-04T11:13:56;15.30;;;3.65;;
28431;SDS011;15664;51.302;7.744;2023-02-04T11:16:25;10.90;;;2.70;;
28431;SDS011;15664;51.302;7.744;2023-02-04T11:18:54;10.43;;;3.10;;
28431;SDS011;15664;51.302;7.744;2023-02-04T11:29:33;17.80;;;4.00;;
28431;SDS011;15664;51.302;7.744;2023-02-04T11:32:05;14.32;;;3.70;;
28431;SDS011;15664;51.302;7.744;2023-02-04T11:34:51;16.65;;;4.47;;
28431;SDS011;15664;51.302;7.744;2023-02-04T11:37:26;19.88;;;4.18;;
28431;SDS011;15664;51.302;7.744;2023-02-04T11:39:52;15.60;;;3.95;;
28431;SDS011;15664;51.302;7.744;2023-02-04T11:42:21;12.63;;;3.20;;
28431;SDS011;15664;51.302;7.744;2023-02-04T11:44:54;19.23;;;3.93;;
28431;SDS011;15664;51.302;7.744;2023-02-04T11:47:23;19.17;;;4.05;;
28431;SDS011;15664;51.302;7.744;2023-02-04T11:50:33;9.10;;;3.80;;
28431;SDS011;15664;51.302;7.744;2023-02-04T11:52:41;18.88;;;4.20;;
28431;SDS011;15664;51.302;7.744;2023-02-04T11:55:09;14.73;;;3.90;;
28431;SDS011;15664;51.302;7.744;2023-02-04T11:57:39;20.77;;;3.70;;
28431;SDS011;15664;51.302;7.744;2023-02-04T12:00:16;22.27;;;4.32;;
28431;SDS011;15664;51.302;7.744;2023-02-04T12:02:47;13.13;;;3.40;;
28431;SDS011;15664;51.302;7.744;2023-02-04T12:05:16;18.80;;;4.20;;
28431;SDS011;15664;51.302;7.744;2023-02-04T12:07:44;19.33;;;3.92;;
28431;SDS011;15664;51.302;7.744;2023-02-04T12:12:56;21.63;;;4.95;;
28431;SDS011;15664;51.302;7.744;2023-02-04T12:15:30;17.70;;;4.93;;
28431;SDS011;15664;51.302;7.744;2023-02-04T12:18:01;21.33;;;5.68;;
28431;SDS011;15664;51.302;7.744;2023-02-04T12:20:37;15.95;;;5.30;;
28431;SDS011;15664;51.302;7.744;2023-02-04T12:23:03;19.52;;;5.38;;
28431;SDS011;15664;51.302;7.744;2023-02-04T12:25:30;16.45;;;5.18;;
28431;SDS011;15664;51.302;7.744;2023-02-04T12:27:55;15.93;;;5.10;;
28431;SDS011;15664;51.302;7.744;2023-02-04T12:30:21;13.63;;;4.20;;
28431;SDS011;15664;51.302;7.744;2023-02-04T12:32:48;23.35;;;6.28;;
28431;SDS011;15664;51.302;7.744;2023-02-04T12:35:14;22.23;;;5.30;;
28431;SDS011;15664;51.302;7.744;2023-02-04T12:37:40;21.40;;;5.80;;
28431;SDS011;15664;51.302;7.744;2023-02-04T12:40:05;18.60;;;5.93;;
28431;SDS011;15664;51.302;7.744;2023-02-04T12:42:31;16.97;;;4.70;;
28431;SDS011;15664;51.302;7.744;2023-02-04T12:44:57;18.25;;;5.65;;
28431;SDS011;15664;51.302;7.744;2023-02-04T12:47:22;20.35;;;5.43;;
28431;SDS011;15664;51.302;7.744;2023-02-04T12:49:48;23.57;;;5.43;;
28431;SDS011;15664;51.302;7.744;2023-02-04T12:52:13;19.23;;;4.30;;
28431;SDS011;15664;51.302;7.744;2023-02-04T12:54:39;15.15;;;3.58;;
28431;SDS011;15664;51.302;7.744;2023-02-04T12:57:04;18.63;;;5.35;;
28431;SDS011;15664;51.302;7.744;2023-02-04T12:59:30;14.70;;;5.40;;
28431;SDS011;15664;51.302;7.744;2023-02-04T13:01:58;17.30;;;5.57;;
28431;SDS011;15664;51.302;7.744;2023-02-04T13:04:23;24.63;;;5.83;;
28431;SDS011;15664;51.302;7.744;2023-02-04T13:06:49;21.87;;;6.00;;
28431;SDS011;15664;51.302;7.744;2023-02-04T13:09:14;20.47;;;6.03;;
28431;SDS011;15664;51.302;7.744;2023-02-04T13:11:40;20.00;;;6.67;;
28431;SDS011;15664;51.302;7.744;2023-02-04T13:14:05;19.45;;;6.53;;
28431;SDS011;15664;51.302;7.744;2023-02-04T13:16:31;18.97;;;6.50;;
28431;SDS011;15664;51.302;7.744;2023-02-04T13:18:56;12.90;;;3.60;;
28431;SDS011;15664;51.302;7.744;2023-02-04T13:21:22;17.57;;;4.33;;
28431;SDS011;15664;51.302;7.744;2023-02-04T13:23:47;19.37;;;5.20;;
28431;SDS011;15664;51.302;7.744;2023-02-04T13:26:13;18.92;;;5.72;;
28431;SDS011;15664;51.302;7.744;2023-02-04T13:28:39;19.13;;;5.40;;
28431;SDS011;15664;51.302;7.744;2023-02-04T13:31:04;20.55;;;5.22;;
28431;SDS011;15664;51.302;7.744;2023-02-04T13:33:30;19.27;;;5.73;;
28431;SDS011;15664;51.302;7.744;2023-02-04T13:35:55;18.93;;;5.67;;
28431;SDS011;15664;51.302;7.744;2023-02-04T13:38:22;28.33;;;5.95;;
28431;SDS011;15664;51.302;7.744;2023-02-04T13:40:47;25.60;;;7.07;;
28431;SDS011;15664;51.302;7.744;2023-02-04T13:43:13;23.48;;;6.22;;
28431;SDS011;15664;51.302;7.744;2023-02-04T13:45:38;22.57;;;6.53;;
28431;SDS011;15664;51.302;7.744;2023-02-04T13:48:05;20.73;;;6.80;;
28431;SDS011;15664;51.302;7.744;2023-02-04T13:50:30;20.93;;;6.50;;
28431;SDS011;15664;51.302;7.744;2023-02-04T13:52:56;23.47;;;7.87;;
28431;SDS011;15664;51.302;7.744;2023-02-04T13:55:21;23.75;;;7.57;;
28431;SDS011;15664;51.302;7.744;2023-02-04T13:57:47;16.83;;;6.37;;
28431;SDS011;15664;51.302;7.744;2023-02-04T14:00:12;23.63;;;7.40;;
28431;SDS011;15664;51.302;7.744;2023-02-04T14:02:38;28.23;;;7.32;;
28431;SDS011;15664;51.302;7.744;2023-02-04T14:05:04;21.07;;;7.13;;
28431;SDS011;15664;51.302;7.744;2023-02-04T14:07:29;18.70;;;5.18;;
28431;SDS011;15664;51.302;7.744;2023-02-04T14:09:57;18.33;;;5.50;;
28431;SDS011;15664;51.302;7.744;2023-02-04T14:12:23;19.70;;;6.03;;
28431;SDS011;15664;51.302;7.744;2023-02-04T14:14:48;30.40;;;8.83;;
28431;SDS011;15664;51.302;7.744;2023-02-04T14:17:14;15.43;;;5.23;;
28431;SDS011;15664;51.302;7.744;2023-02-04T14:19:39;25.97;;;9.40;;
28431;SDS011;15664;51.302;7.744;2023-02-04T14:22:04;22.40;;;5.90;;
28431;SDS011;15664;51.302;7.744;2023-02-04T14:24:30;23.07;;;5.87;;
28431;SDS011;15664;51.302;7.744;2023-02-04T14:26:56;16.07;;;4.73;;
28431;SDS011;15664;51.302;7.744;2023-02-04T14:29:21;28.52;;;6.80;;
28431;SDS011;15664;51.302;7.744;2023-02-04T14:31:46;16.83;;;5.03;;
28431;SDS011;15664;51.302;7.744;2023-02-04T14:34:12;24.40;;;7.22;;
28431;SDS011;15664;51.302;7.744;2023-02-04T14:36:38;22.37;;;6.67;;
28431;SDS011;15664;51.302;7.744;2023-02-04T14:39:03;19.95;;;6.68;;
28431;SDS011;15664;51.302;7.744;2023-02-04T14:41:29;24.38;;;5.97;;
28431;SDS011;15664;51.302;7.744;2023-02-04T14:43:55;21.40;;;5.47;;